X  FermerMétéo aéronautique     LFRZ Saint-Nazaire-Montoir

Température

17°C Température

14°C Point de rosée

83% Humidité



Vent

48 KM/H

30 MPH

13 M/S

26 KTS



220°
Sud Ouest
Conditions actuelles

Plutôt nuageux Plutôt nuageux
Pression : 1008.92 hPa - 29.79 in
Visibilité : 10 km - 6.2 mi
Aéroport
Code OACI : LFRZ

Aéroport : Saint-Nazaire-Montoir (14 km)

Metar :
LFRZ 160030Z AUTO 22026KT 9999 BKN025 OVC031 17/14 Q1009 TEMPO 21020G40KT 3500 RADZ BKN008 BKN015

Publication : 16-10-2019 02:30